Time;durP1;ratioP1;P1;durP2;ratioP2;P2;SDS_P1;SDS_P2;PMS_P1;PMS_P2;Temp;Humidity;BMP_temperature;BMP_pressure;BME280_temperature;BME280_humidity;BME280_pressure;Samples;Min_cycle;Max_cycle;Signal;HPM_P1;HPM_P2
2021/08/14 00:00:40;;;;;;;8.50;7.00;;;20.40;99.90;;;;;;5088482;22;20471;-82
2021/08/14 00:03:08;;;;;;;9.17;7.13;;;20.40;1.00;;;;;;5083303;28;20934;-82
2021/08/14 00:05:36;;;;;;;7.00;6.07;;;20.40;1.00;;;;;;5082920;28;20886;-81
2021/08/14 00:08:06;;;;;;;9.30;8.40;;;20.40;99.90;;;;;;5084838;28;20411;-80
2021/08/14 00:10:34;;;;;;;8.80;6.40;;;20.40;3.80;;;;;;5071319;28;20433;-80
2021/08/14 00:13:02;;;;;;;8.93;7.13;;;20.30;99.90;;;;;;5047830;28;20428;-81
2021/08/14 00:15:30;;;;;;;7.90;6.73;;;20.30;1.00;;;;;;5066339;28;20426;-80
2021/08/14 00:17:58;;;;;;;7.83;6.50;;;20.30;99.90;;;;;;5064541;28;20406;-80
2021/08/14 00:20:27;;;;;;;7.40;6.10;;;20.30;99.90;;;;;;5063696;28;20414;-81
2021/08/14 00:22:55;;;;;;;6.87;6.27;;;20.20;99.90;;;;;;5062754;28;20487;-82
2021/08/14 00:25:24;;;;;;;7.50;6.60;;;20.20;1.00;;;;;;5063935;28;20406;-83
2021/08/14 00:27:53;;;;;;;7.50;6.80;;;20.10;1.00;;;;;;5046261;28;20414;-82
2021/08/14 00:30:21;;;;;;;6.50;5.73;;;20.10;1.00;;;;;;5061977;28;20435;-81
2021/08/14 00:32:51;;;;;;;6.13;5.60;;;20.10;1.00;;;;;;5046158;28;20410;-80
2021/08/14 00:35:20;;;;;;;7.73;5.83;;;20.10;1.00;;;;;;5064103;28;20378;-80
2021/08/14 00:37:48;;;;;;;6.03;4.80;;;20.00;1.00;;;;;;5065481;28;20394;-79
2021/08/14 00:40:16;;;;;;;5.97;5.47;;;20.00;16.10;;;;;;5067330;28;20451;-79
2021/08/14 00:42:46;;;;;;;5.53;4.93;;;20.00;2.30;;;;;;5064651;28;20467;-81
2021/08/14 00:45:14;;;;;;;6.43;5.50;;;19.90;99.60;;;;;;5064496;28;20412;-79
2021/08/14 00:47:43;;;;;;;6.80;5.80;;;19.90;90.20;;;;;;5064898;28;20449;-80
2021/08/14 00:50:12;;;;;;;6.97;5.60;;;19.80;92.20;;;;;;5063091;28;20500;-79
2021/08/14 00:52:41;;;;;;;4.77;4.33;;;19.70;1.00;;;;;;5060219;28;20519;-80
2021/08/14 00:55:10;;;;;;;7.60;6.40;;;19.70;99.90;;;;;;5058459;28;20382;-80
2021/08/14 00:57:38;;;;;;;8.00;4.90;;;19.60;99.90;;;;;;5041010;28;20435;-80
2021/08/14 01:00:09;;;;;;;6.27;5.23;;;19.60;99.90;;;;;;5058043;28;20868;-81
2021/08/14 01:02:37;;;;;;;5.47;4.83;;;19.50;58.70;;;;;;5057311;28;20421;-81
2021/08/14 01:05:07;;;;;;;5.93;5.33;;;19.40;99.90;;;;;;5056542;28;20941;-80
2021/08/14 01:07:35;;;;;;;7.17;6.23;;;19.40;32.00;;;;;;5054901;28;20938;-82
2021/08/14 01:10:03;;;;;;;9.77;6.17;;;19.30;68.80;;;;;;5062241;28;20440;-82
2021/08/14 01:12:33;;;;;;;8.20;5.53;;;19.20;1.00;;;;;;5061568;28;20424;-79
2021/08/14 01:15:04;;;;;;;7.30;5.57;;;19.10;99.90;;;;;;5062018;28;20438;-84
2021/08/14 01:17:35;;;;;;;8.10;6.10;;;19.10;1.00;;;;;;5061687;28;20417;-80
2021/08/14 01:20:03;;;;;;;7.87;6.20;;;19.10;99.90;;;;;;5049250;28;20429;-79
2021/08/14 01:22:31;;;;;;;7.77;6.03;;;19.00;65.50;;;;;;5064093;28;21074;-82
2021/08/14 01:24:59;;;;;;;9.00;7.67;;;18.90;1.00;;;;;;5054404;28;20424;-84
2021/08/14 01:27:29;;;;;;;7.13;5.40;;;18.90;99.90;;;;;;5075823;28;20403;-84
2021/08/14 01:29:57;;;;;;;6.80;5.73;;;18.80;99.90;;;;;;5075214;28;20422;-81
2021/08/14 01:32:25;;;;;;;9.83;6.30;;;18.70;99.90;;;;;;5074762;28;20398;-80
2021/08/14 01:34:53;;;;;;;6.47;5.33;;;18.60;99.90;;;;;;5053669;28;20431;-83
2021/08/14 01:37:22;;;;;;;7.10;6.40;;;18.50;99.90;;;;;;5064089;28;20408;-82
2021/08/14 01:39:50;;;;;;;9.83;6.20;;;18.50;99.90;;;;;;5063124;28;20477;-81
2021/08/14 01:42:18;;;;;;;7.77;6.57;;;18.50;99.90;;;;;;5061760;28;20424;-82
2021/08/14 01:44:47;;;;;;;9.07;6.73;;;18.50;99.90;;;;;;5062525;28;20438;-80
2021/08/14 01:47:15;;;;;;;9.20;4.83;;;18.50;99.90;;;;;;5066058;28;20460;-79
2021/08/14 01:49:44;;;;;;;10.43;6.13;;;18.40;99.90;;;;;;5065727;28;20425;-79
2021/08/14 01:52:13;;;;;;;5.23;4.57;;;18.40;99.90;;;;;;5061985;28;20397;-82
2021/08/14 01:54:42;;;;;;;8.20;6.13;;;18.30;99.90;;;;;;5061783;28;20404;-81
2021/08/14 01:57:10;;;;;;;6.47;5.60;;;18.30;99.90;;;;;;5060859;28;20436;-82
2021/08/14 01:59:38;;;;;;;8.73;6.20;;;18.40;99.90;;;;;;5059173;28;20467;-82
2021/08/14 02:02:08;;;;;;;7.70;5.63;;;18.30;99.90;;;;;;5057932;28;20417;-81
2021/08/14 02:04:36;;;;;;;7.67;5.73;;;18.20;99.90;;;;;;5060014;28;20441;-81
2021/08/14 02:07:05;;;;;;;6.30;4.97;;;18.20;99.90;;;;;;5059947;28;20386;-80
2021/08/14 02:09:33;;;;;;;8.90;4.87;;;18.30;99.90;;;;;;5060530;28;20542;-79
2021/08/14 02:12:01;;;;;;;8.07;5.77;;;18.20;99.90;;;;;;5042194;28;20427;-80
2021/08/14 02:14:29;;;;;;;6.90;5.10;;;18.20;99.90;;;;;;5058143;28;20394;-80
2021/08/14 02:16:57;;;;;;;7.60;5.27;;;18.30;99.90;;;;;;5059981;28;20428;-80
2021/08/14 02:19:27;;;;;;;7.17;5.40;;;18.20;99.90;;;;;;5059550;28;20470;-80
2021/08/14 02:21:55;;;;;;;10.23;5.77;;;18.20;99.90;;;;;;5058518;28;20431;-79
2021/08/14 02:24:23;;;;;;;6.53;5.80;;;18.20;99.90;;;;;;5059592;28;20433;-79
2021/08/14 02:26:51;;;;;;;7.73;5.93;;;18.20;99.90;;;;;;5056724;28;20436;-82
2021/08/14 02:29:19;;;;;;;8.27;6.00;;;18.20;99.90;;;;;;5039638;28;20465;-81
2021/08/14 02:31:47;;;;;;;8.50;6.07;;;18.30;99.90;;;;;;5060479;28;20513;-81
2021/08/14 02:34:15;;;;;;;10.17;6.27;;;18.40;99.90;;;;;;5065940;28;20485;-82
2021/08/14 02:36:44;;;;;;;10.37;6.93;;;18.50;99.90;;;;;;5048820;28;20409;-80
2021/08/14 02:39:12;;;;;;;6.10;5.50;;;18.60;99.90;;;;;;5065585;28;20447;-80
2021/08/14 02:41:40;;;;;;;6.57;5.13;;;18.60;99.90;;;;;;5065536;28;20426;-80
2021/08/14 02:44:09;;;;;;;8.20;6.90;;;18.60;99.90;;;;;;5065261;28;20826;-79
2021/08/14 02:46:37;;;;;;;9.27;6.07;;;18.50;99.90;;;;;;5065251;28;20385;-83
2021/08/14 02:49:05;;;;;;;5.80;4.50;;;18.50;99.90;;;;;;5064484;28;20455;-82
2021/08/14 02:51:33;;;;;;;12.10;5.87;;;18.60;99.90;;;;;;5046885;28;20438;-81
2021/08/14 02:54:03;;;;;;;9.20;5.43;;;18.50;99.90;;;;;;5065322;28;20418;-81
2021/08/14 02:56:31;;;;;;;5.93;4.80;;;18.60;99.90;;;;;;5065360;28;20434;-80
2021/08/14 02:58:59;;;;;;;10.83;6.17;;;18.50;99.90;;;;;;5064693;28;20454;-80
2021/08/14 03:01:27;;;;;;;6.87;5.20;;;18.50;99.90;;;;;;5065555;28;20402;-81
2021/08/14 03:03:55;;;;;;;10.60;5.57;;;18.50;99.90;;;;;;5049173;28;20513;-80
2021/08/14 03:06:25;;;;;;;6.37;5.20;;;18.60;99.90;;;;;;5066354;28;20412;-82
2021/08/14 03:08:54;;;;;;;6.00;5.40;;;18.60;99.90;;;;;;5048526;28;20410;-82
2021/08/14 03:11:23;;;;;;;6.60;5.70;;;18.50;99.90;;;;;;5066885;28;20412;-79
2021/08/14 03:13:52;;;;;;;7.43;5.73;;;18.50;99.90;;;;;;5065326;28;20390;-80
2021/08/14 03:16:20;;;;;;;6.50;5.50;;;18.40;99.90;;;;;;5064135;28;20963;-79
2021/08/14 03:18:48;;;;;;;8.57;5.30;;;18.50;99.90;;;;;;5048977;28;20441;-78
2021/08/14 03:21:16;;;;;;;8.20;5.50;;;18.50;99.90;;;;;;5045807;28;20409;-79
2021/08/14 03:23:44;;;;;;;5.50;5.00;;;18.40;99.90;;;;;;5062911;28;20452;-80
2021/08/14 03:26:12;;;;;;;7.10;4.70;;;18.30;99.90;;;;;;5063303;28;20440;-82
2021/08/14 03:28:41;;;;;;;6.17;4.33;;;18.30;99.90;;;;;;5064332;28;20431;-81
2021/08/14 03:31:09;;;;;;;5.90;4.20;;;18.40;99.90;;;;;;5063099;28;20436;-80
2021/08/14 03:33:38;;;;;;;6.20;5.30;;;18.40;99.90;;;;;;5063696;28;20409;-80
2021/08/14 03:36:06;;;;;;;4.80;4.17;;;18.30;99.90;;;;;;5063828;28;20382;-80
2021/08/14 03:38:36;;;;;;;9.30;4.77;;;18.40;99.90;;;;;;5047786;28;21011;-82
2021/08/14 03:41:06;;;;;;;7.33;4.80;;;18.50;99.90;;;;;;5063935;28;20966;-83
2021/08/14 03:43:34;;;;;;;6.80;3.80;;;18.50;99.90;;;;;;5063708;28;20433;-82
2021/08/14 03:46:04;;;;;;;6.33;4.00;;;18.60;99.90;;;;;;5064524;28;20927;-81
2021/08/14 03:48:33;;;;;;;6.07;3.93;;;18.60;99.90;;;;;;5065037;28;20398;-81
2021/08/14 03:51:01;;;;;;;8.67;5.00;;;18.60;99.90;;;;;;5047562;28;20463;-79
2021/08/14 03:53:30;;;;;;;6.70;5.07;;;18.70;99.90;;;;;;5065945;28;20454;-79
2021/08/14 03:55:58;;;;;;;5.37;4.50;;;18.80;99.90;;;;;;5048057;28;20415;-81
2021/08/14 03:58:26;;;;;;;6.07;4.40;;;18.60;99.90;;;;;;5047947;28;20431;-80
2021/08/14 04:00:55;;;;;;;9.33;4.90;;;18.40;99.90;;;;;;5065269;28;20433;-81
2021/08/14 04:03:24;;;;;;;4.67;4.00;;;18.40;99.90;;;;;;5067462;28;20400;-83
2021/08/14 04:05:53;;;;;;;8.10;4.13;;;18.40;99.90;;;;;;5068042;28;20472;-81
2021/08/14 04:08:21;;;;;;;9.47;4.20;;;18.40;99.90;;;;;;5070234;28;20495;-81
2021/08/14 04:10:49;;;;;;;5.20;3.80;;;18.30;99.90;;;;;;5066124;28;20447;-82
2021/08/14 04:13:17;;;;;;;7.67;4.10;;;18.40;99.90;;;;;;5046840;28;20815;-82
2021/08/14 04:15:45;;;;;;;9.23;3.83;;;18.40;99.90;;;;;;5065314;28;20446;-82
2021/08/14 04:18:14;;;;;;;8.90;4.30;;;18.40;99.90;;;;;;5068260;28;20457;-79
2021/08/14 04:20:43;;;;;;;4.37;3.47;;;18.50;99.90;;;;;;5067597;28;20426;-79
2021/08/14 04:23:11;;;;;;;6.40;3.90;;;18.50;99.90;;;;;;5066118;28;20386;-81
2021/08/14 04:25:39;;;;;;;5.30;3.90;;;18.40;99.90;;;;;;5066652;28;20561;-81
2021/08/14 04:28:07;;;;;;;4.47;3.17;;;18.50;99.90;;;;;;5072657;28;20398;-81
2021/08/14 04:30:35;;;;;;;9.77;4.70;;;18.40;99.90;;;;;;5071494;28;20433;-83
2021/08/14 04:33:04;;;;;;;5.97;3.60;;;18.40;99.90;;;;;;5063952;28;20488;-83
2021/08/14 04:35:32;;;;;;;4.77;3.47;;;18.40;99.90;;;;;;5064236;28;20424;-81
2021/08/14 04:38:01;;;;;;;5.77;3.00;;;18.60;99.90;;;;;;5064216;28;20397;-79
2021/08/14 04:40:30;;;;;;;7.50;3.07;;;18.60;99.90;;;;;;5046320;28;20955;-82
2021/08/14 04:42:58;;;;;;;5.37;3.87;;;18.90;99.90;;;;;;5064712;28;20386;-80
2021/08/14 04:45:26;;;;;;;4.50;2.90;;;19.40;99.90;;;;;;5063670;28;20471;-83
2021/08/14 04:47:54;;;;;;;9.67;3.30;;;20.00;99.90;;;;;;5063533;28;20414;-80
2021/08/14 04:50:22;;;;;;;4.27;3.20;;;20.70;99.90;;;;;;5064199;28;20417;-81
2021/08/14 04:52:50;;;;;;;5.33;2.90;;;21.50;99.90;;;;;;5063162;28;20988;-80
2021/08/14 04:55:20;;;;;;;7.47;4.23;;;22.10;99.90;;;;;;5068870;28;20415;-81
2021/08/14 04:57:48;;;;;;;8.73;4.43;;;22.60;99.90;;;;;;5058702;28;20397;-84
2021/08/14 05:00:17;;;;;;;10.23;4.37;;;23.40;99.90;;;;;;5059599;28;20422;-82
2021/08/14 05:02:45;;;;;;;7.27;3.43;;;23.70;99.90;;;;;;5077629;28;20378;-84
2021/08/14 05:05:14;;;;;;;4.27;3.43;;;24.30;99.90;;;;;;5076486;28;20445;-81
2021/08/14 05:07:42;;;;;;;9.73;3.80;;;24.90;99.90;;;;;;5051210;28;20478;-81
2021/08/14 05:10:13;;;;;;;5.10;3.27;;;25.20;99.90;;;;;;5064109;28;20487;-81
2021/08/14 05:12:43;;;;;;;6.07;3.60;;;25.10;99.90;;;;;;5045390;28;20432;-80
2021/08/14 05:15:11;;;;;;;6.67;3.47;;;24.40;99.90;;;;;;5064549;28;20402;-80
2021/08/14 05:17:40;;;;;;;8.83;3.90;;;24.40;99.90;;;;;;5043698;28;20916;-79
2021/08/14 05:20:08;;;;;;;3.70;2.50;;;25.20;99.90;;;;;;5043570;28;20446;-78
2021/08/14 05:22:36;;;;;;;13.27;3.70;;;26.00;99.90;;;;;;5069612;28;20973;-81
2021/08/14 05:25:05;;;;;;;3.70;2.90;;;26.50;99.90;;;;;;5062412;28;20454;-80
2021/08/14 05:27:33;;;;;;;5.20;3.53;;;25.30;99.90;;;;;;5063447;28;20420;-80
2021/08/14 05:30:03;;;;;;;4.90;2.93;;;23.70;99.90;;;;;;5064026;28;20456;-80
2021/08/14 05:32:32;;;;;;;4.93;3.47;;;22.30;99.90;;;;;;5045112;28;20435;-78
2021/08/14 05:35:00;;;;;;;5.40;3.40;;;21.80;99.90;;;;;;5066161;28;20394;-79
2021/08/14 05:37:28;;;;;;;4.97;3.83;;;21.50;99.90;;;;;;5068087;28;20402;-80
2021/08/14 05:39:56;;;;;;;4.70;4.13;;;21.50;99.90;;;;;;5065029;28;20422;-81
2021/08/14 05:42:24;;;;;;;8.90;4.47;;;21.40;99.90;;;;;;5064021;28;20382;-82
2021/08/14 05:44:52;;;;;;;16.20;4.63;;;21.40;99.90;;;;;;5063418;28;20435;-82
2021/08/14 05:47:21;;;;;;;5.60;3.73;;;21.20;99.90;;;;;;5063334;28;20430;-81
2021/08/14 05:49:49;;;;;;;8.40;3.70;;;20.90;99.90;;;;;;5063349;28;20449;-82
2021/08/14 05:52:19;;;;;;;9.80;4.07;;;20.50;99.90;;;;;;5064163;28;20779;-81
2021/08/14 05:54:47;;;;;;;9.60;3.30;;;20.60;99.90;;;;;;5065424;28;20483;-81
2021/08/14 05:57:15;;;;;;;7.57;4.50;;;20.80;99.90;;;;;;5064431;28;20394;-83
2021/08/14 05:59:43;;;;;;;7.37;3.50;;;21.00;99.90;;;;;;5090035;22;20461;-67
2021/08/14 06:02:11;;;;;;;5.53;3.50;;;21.60;99.90;;;;;;5033553;28;20461;-68
2021/08/14 06:04:41;;;;;;;3.97;2.90;;;22.10;99.90;;;;;;5010147;28;20884;-69
2021/08/14 06:07:10;;;;;;;5.43;2.70;;;22.20;99.90;;;;;;5008698;28;20447;-69
2021/08/14 06:09:38;;;;;;;4.87;3.37;;;22.30;99.90;;;;;;5009959;28;20967;-70
2021/08/14 06:12:07;;;;;;;5.03;3.50;;;22.50;99.90;;;;;;4991587;28;20519;-69
2021/08/14 06:14:36;;;;;;;6.40;4.33;;;22.50;99.90;;;;;;5009603;28;20791;-69
2021/08/14 06:17:05;;;;;;;5.83;3.47;;;22.50;99.90;;;;;;5009111;28;20413;-69
2021/08/14 06:19:33;;;;;;;6.80;3.93;;;22.60;99.90;;;;;;5010015;28;20906;-69
2021/08/14 06:22:03;;;;;;;7.53;4.30;;;22.70;99.90;;;;;;5009063;28;20522;-69
2021/08/14 06:24:32;;;;;;;6.70;4.23;;;22.70;99.90;;;;;;5009565;28;20403;-70
2021/08/14 06:27:00;;;;;;;9.73;2.87;;;22.90;99.90;;;;;;5009237;28;20443;-69
2021/08/14 06:29:29;;;;;;;8.50;5.40;;;22.50;99.90;;;;;;5009203;28;20925;-69
2021/08/14 06:31:58;;;;;;;9.53;4.53;;;22.10;99.90;;;;;;4991777;28;20453;-70
2021/08/14 06:34:26;;;;;;;6.57;4.10;;;22.20;99.90;;;;;;5009248;28;20429;-70
2021/08/14 06:36:55;;;;;;;5.27;3.93;;;22.20;99.90;;;;;;5009735;28;20428;-69
2021/08/14 06:39:24;;;;;;;11.43;5.33;;;22.30;99.90;;;;;;5009511;28;20415;-68
2021/08/14 06:41:53;;;;;;;6.80;4.30;;;22.30;99.90;;;;;;4992014;28;20452;-68
2021/08/14 06:44:21;;;;;;;13.33;3.80;;;22.30;99.90;;;;;;5008888;28;20395;-69
2021/08/14 06:46:49;;;;;;;4.40;3.40;;;22.20;99.90;;;;;;5008860;28;20962;-68
2021/08/14 06:49:17;;;;;;;8.20;4.40;;;22.20;99.90;;;;;;5008301;28;20404;-68
2021/08/14 06:51:46;;;;;;;4.33;2.90;;;22.30;99.90;;;;;;5009534;28;20436;-69
2021/08/14 06:54:14;;;;;;;6.20;4.77;;;22.50;99.90;;;;;;5009082;28;20450;-69
2021/08/14 06:56:44;;;;;;;6.80;3.83;;;22.30;99.90;;;;;;5009173;28;20415;-69
2021/08/14 06:59:12;;;;;;;12.07;4.17;;;22.50;99.90;;;;;;5008366;28;20423;-68
2021/08/14 07:01:40;;;;;;;5.73;3.70;;;22.40;99.90;;;;;;5009204;28;20415;-69
2021/08/14 07:04:09;;;;;;;9.77;3.70;;;22.50;99.90;;;;;;5008518;28;20403;-68
2021/08/14 07:06:38;;;;;;;8.97;5.23;;;22.70;99.90;;;;;;5008772;28;20948;-68
2021/08/14 07:09:06;;;;;;;8.40;3.90;;;22.70;99.90;;;;;;5008647;28;20900;-68
2021/08/14 07:11:34;;;;;;;5.60;3.33;;;22.70;99.90;;;;;;4991773;28;20433;-68
2021/08/14 07:14:04;;;;;;;5.27;3.53;;;22.70;99.90;;;;;;5008542;28;20932;-69
2021/08/14 07:16:32;;;;;;;5.70;3.10;;;22.80;99.90;;;;;;5010689;28;20956;-69
2021/08/14 07:19:00;;;;;;;5.17;3.80;;;22.70;99.90;;;;;;5012131;28;20487;-68
2021/08/14 07:21:29;;;;;;;8.30;4.17;;;22.70;99.90;;;;;;5012698;28;20948;-69
2021/08/14 07:23:57;;;;;;;6.47;3.67;;;22.70;99.90;;;;;;4994544;28;20435;-69
2021/08/14 07:26:25;;;;;;;9.87;4.37;;;22.50;99.90;;;;;;5011863;28;20522;-68
2021/08/14 07:28:54;;;;;;;5.27;2.93;;;22.10;99.90;;;;;;5011461;28;20425;-69
2021/08/14 07:31:24;;;;;;;8.10;3.50;;;21.50;99.90;;;;;;5012528;28;20406;-68
2021/08/14 07:33:52;;;;;;;5.50;3.60;;;21.30;99.90;;;;;;5011826;28;20968;-69
2021/08/14 07:36:20;;;;;;;7.60;3.13;;;21.20;99.90;;;;;;5011981;28;20400;-68
2021/08/14 07:38:49;;;;;;;7.93;3.50;;;21.40;99.90;;;;;;5012002;28;20395;-69
2021/08/14 07:41:17;;;;;;;5.57;2.97;;;21.40;99.90;;;;;;4994784;28;20431;-70
2021/08/14 07:43:45;;;;;;;5.83;3.27;;;21.50;99.90;;;;;;5012601;28;20419;-70
2021/08/14 07:46:13;;;;;;;4.67;2.63;;;21.80;99.90;;;;;;4993356;28;20707;-69
2021/08/14 07:48:43;;;;;;;4.37;3.00;;;22.10;99.90;;;;;;5011655;28;21069;-69
2021/08/14 07:51:11;;;;;;;6.03;2.93;;;22.30;99.90;;;;;;5011446;28;20415;-70
2021/08/14 07:53:39;;;;;;;9.27;5.03;;;22.50;99.90;;;;;;5012551;28;20903;-70
2021/08/14 07:56:08;;;;;;;6.33;2.70;;;22.60;99.90;;;;;;5011301;28;20449;-69
2021/08/14 07:58:36;;;;;;;3.97;2.43;;;22.70;99.90;;;;;;5008972;28;20939;-69
2021/08/14 08:01:04;;;;;;;4.73;3.03;;;22.70;99.90;;;;;;5011450;28;20507;-69
2021/08/14 08:03:33;;;;;;;5.90;2.97;;;22.90;99.90;;;;;;5010426;28;20474;-69
2021/08/14 08:06:04;;;;;;;4.27;3.27;;;23.10;99.90;;;;;;5010102;28;20384;-69
2021/08/14 08:08:34;;;;;;;6.10;3.07;;;23.30;99.90;;;;;;5011851;28;20428;-70
2021/08/14 08:11:04;;;;;;;3.90;2.27;;;23.40;99.90;;;;;;5011346;28;20410;-69
2021/08/14 08:13:32;;;;;;;4.30;2.57;;;23.40;99.90;;;;;;5013133;28;20419;-70
2021/08/14 08:16:01;;;;;;;8.10;3.10;;;23.30;99.90;;;;;;5010980;28;20527;-69
2021/08/14 08:18:29;;;;;;;3.43;2.53;;;23.60;99.90;;;;;;5010987;28;20500;-70
2021/08/14 08:20:57;;;;;;;3.80;3.10;;;24.00;99.90;;;;;;5010632;28;20829;-69
2021/08/14 08:23:27;;;;;;;5.00;2.90;;;23.60;99.90;;;;;;5010999;28;20987;-69
2021/08/14 08:25:55;;;;;;;6.03;2.80;;;23.60;99.90;;;;;;5008478;28;20925;-70
2021/08/14 08:28:24;;;;;;;4.13;3.40;;;23.50;99.90;;;;;;5006664;28;20964;-69
2021/08/14 08:30:52;;;;;;;4.53;3.20;;;23.30;99.90;;;;;;5009325;28;20450;-71
2021/08/14 08:33:21;;;;;;;5.83;2.90;;;23.30;99.90;;;;;;5020604;28;20468;-73
2021/08/14 08:35:51;;;;;;;5.43;3.33;;;23.30;99.90;;;;;;5025684;28;20914;-72
2021/08/14 08:38:22;;;;;;;7.73;3.00;;;23.30;99.90;;;;;;5008189;28;20415;-74
2021/08/14 08:40:53;;;;;;;4.73;2.87;;;23.70;99.90;;;;;;5016540;28;20432;-73
2021/08/14 08:43:23;;;;;;;4.63;3.10;;;24.30;99.90;;;;;;5030638;28;20434;-74
2021/08/14 08:45:52;;;;;;;4.43;2.93;;;24.60;99.90;;;;;;5030281;28;20704;-74
2021/08/14 08:48:23;;;;;;;5.07;2.97;;;24.40;99.90;;;;;;5026294;28;20465;-71
2021/08/14 08:50:55;;;;;;;3.20;2.23;;;24.30;99.90;;;;;;5014732;28;20433;-71
2021/08/14 08:56:27;;;;;;;5.97;3.07;;;24.10;99.90;;;;;;5177482;23;20505;-83
2021/08/14 08:58:55;;;;;;;4.40;2.53;;;23.80;99.90;;;;;;4927524;29;20453;-82
2021/08/14 09:01:23;;;;;;;5.63;2.70;;;23.60;99.90;;;;;;4921986;29;20454;-81
2021/08/14 09:03:52;;;;;;;4.67;2.60;;;23.40;99.90;;;;;;4919912;29;20497;-82
2021/08/14 09:06:40;;;;;;;3.03;2.20;;;23.50;99.90;;;;;;4935041;29;20484;-82
2021/08/14 09:09:11;;;;;;;4.33;3.20;;;23.80;99.90;;;;;;4956635;23;20902;-81
2021/08/14 09:11:49;;;;;;;2.37;2.17;;;23.90;99.90;;;;;;4924171;29;20439;-81
2021/08/14 09:14:18;;;;;;;3.87;2.50;;;24.20;99.90;;;;;;4907188;29;20449;-83
2021/08/14 09:16:46;;;;;;;4.13;2.50;;;24.60;99.90;;;;;;4892391;29;20438;-82
2021/08/14 09:19:23;;;;;;;3.80;2.40;;;25.00;99.90;;;;;;4890978;29;20474;-82
2021/08/14 09:21:51;;;;;;;3.53;2.17;;;25.00;99.90;;;;;;4890442;29;20442;-83
2021/08/14 09:24:32;;;;;;;6.40;3.93;;;24.70;99.90;;;;;;4891699;29;20447;-82
2021/08/14 09:27:03;;;;;;;5.77;2.27;;;24.30;99.90;;;;;;4893602;29;20474;-81
2021/08/14 09:29:34;;;;;;;3.27;2.13;;;24.30;99.90;;;;;;4911096;29;20486;-81
2021/08/14 09:32:05;;;;;;;3.40;2.50;;;24.10;99.90;;;;;;4909190;29;20409;-82
2021/08/14 09:34:34;;;;;;;5.40;3.17;;;24.00;99.90;;;;;;4908057;29;20469;-82
2021/08/14 09:37:04;;;;;;;4.60;2.60;;;24.00;99.90;;;;;;4892084;29;20425;-82
2021/08/14 09:39:34;;;;;;;3.80;2.40;;;24.20;99.90;;;;;;4907775;29;20527;-83
2021/08/14 09:42:05;;;;;;;3.50;2.87;;;24.40;99.90;;;;;;4907608;29;20474;-82
2021/08/14 09:44:35;;;;;;;2.50;1.93;;;24.40;99.90;;;;;;4894161;29;20413;-81
2021/08/14 09:47:08;;;;;;;4.60;3.20;;;24.70;99.90;;;;;;4891104;29;21001;-82
2021/08/14 09:49:50;;;;;;;6.20;3.20;;;25.10;99.90;;;;;;4905054;29;20451;-83
2021/08/14 09:52:23;;;;;;;6.70;2.63;;;25.70;99.90;;;;;;4904894;29;20434;-82
2021/08/14 09:54:51;;;;;;;3.70;2.33;;;25.80;99.90;;;;;;4904971;29;20442;-81
2021/08/14 09:57:23;;;;;;;7.50;2.70;;;25.60;99.90;;;;;;4904438;29;20441;-81
2021/08/14 09:59:52;;;;;;;5.73;3.63;;;25.50;99.90;;;;;;4921341;29;20446;-79
2021/08/14 10:02:24;;;;;;;5.07;2.80;;;25.80;99.90;;;;;;4920553;29;20417;-81
2021/08/14 10:04:54;;;;;;;5.20;2.67;;;25.90;99.90;;;;;;4904493;29;20496;-81
2021/08/14 10:07:23;;;;;;;6.97;3.17;;;26.00;99.90;;;;;;4896056;29;20469;-82
2021/08/14 10:09:53;;;;;;;5.10;2.30;;;26.00;99.90;;;;;;4892858;29;20557;-85
2021/08/14 10:12:23;;;;;;;3.30;2.30;;;26.00;99.90;;;;;;4905243;29;20548;-83
2021/08/14 10:14:51;;;;;;;4.40;2.47;;;26.00;99.90;;;;;;4903545;29;20450;-83
2021/08/14 10:17:24;;;;;;;5.70;2.67;;;26.00;99.90;;;;;;4936652;29;20396;-81
2021/08/14 10:19:53;;;;;;;8.67;3.37;;;25.90;99.90;;;;;;4938991;29;20495;-83
2021/08/14 10:22:25;;;;;;;4.63;2.40;;;25.60;99.90;;;;;;4932211;29;20436;-81
2021/08/14 10:24:55;;;;;;;4.63;2.40;;;25.10;99.90;;;;;;4929396;29;20921;-83
2021/08/14 10:27:25;;;;;;;4.93;2.50;;;25.00;99.90;;;;;;4919582;29;20905;-83
2021/08/14 10:29:56;;;;;;;3.30;2.70;;;25.10;99.90;;;;;;4907915;29;20442;-83
2021/08/14 10:32:45;;;;;;;6.27;3.07;;;25.40;99.90;;;;;;4889850;29;20924;-82
2021/08/14 10:35:37;;;;;;;4.70;2.67;;;25.40;99.90;;;;;;4889342;29;20496;-83
2021/08/14 10:38:39;;;;;;;3.60;2.40;;;24.90;99.90;;;;;;4889097;29;20505;-82
2021/08/14 10:41:08;;;;;;;3.93;2.97;;;24.80;99.90;;;;;;4906324;29;20446;-83
2021/08/14 10:44:01;;;;;;;4.33;3.23;;;25.10;99.90;;;;;;4889822;29;20443;-83
2021/08/14 10:46:37;;;;;;;2.20;1.80;;;25.20;99.90;;;;;;4891016;29;20969;-83
2021/08/14 10:49:06;;;;;;;4.33;3.30;;;25.10;99.90;;;;;;4907841;29;20470;-83
2021/08/14 10:52:13;;;;;;;3.17;2.60;;;25.30;99.90;;;;;;4893675;29;20470;-84
2021/08/14 10:55:18;;;;;;;6.70;3.07;;;25.60;99.90;;;;;;4896819;29;20510;-82
2021/08/14 10:57:53;;;;;;;3.67;2.67;;;26.00;99.90;;;;;;4896606;29;20506;-86
2021/08/14 11:00:38;;;;;;;5.10;4.20;;;26.10;99.90;;;;;;4897370;29;20470;-87
2021/08/14 11:03:11;;;;;;;5.13;3.30;;;25.90;99.90;;;;;;4897698;29;20450;-82
2021/08/14 11:05:43;;;;;;;3.90;2.60;;;26.00;99.90;;;;;;4908751;29;20478;-83
2021/08/14 11:08:31;;;;;;;3.67;2.80;;;25.90;99.90;;;;;;4893533;29;20478;-83
2021/08/14 11:11:00;;;;;;;4.93;3.10;;;25.80;99.90;;;;;;4909809;29;20514;-82
2021/08/14 11:13:42;;;;;;;4.00;2.50;;;25.80;99.90;;;;;;4911102;29;20430;-81
2021/08/14 11:16:53;;;;;;;2.70;2.37;;;25.60;99.90;;;;;;4894430;29;20450;-82
2021/08/14 11:19:58;;;;;;;3.20;2.20;;;25.40;99.90;;;;;;4893097;29;20470;-84
2021/08/14 11:22:30;;;;;;;4.80;3.17;;;25.30;99.90;;;;;;4909742;29;20474;-81
2021/08/14 11:25:03;;;;;;;3.20;2.30;;;25.20;99.90;;;;;;4910884;29;20449;-82
2021/08/14 11:27:33;;;;;;;4.33;2.90;;;25.10;99.90;;;;;;4892993;29;20430;-81
2021/08/14 11:30:06;;;;;;;4.43;3.50;;;24.90;99.90;;;;;;4910055;29;20470;-83
2021/08/14 11:32:37;;;;;;;3.70;2.53;;;24.70;99.90;;;;;;4893739;29;20521;-83
2021/08/14 11:35:07;;;;;;;3.80;2.50;;;24.60;99.90;;;;;;4894625;29;20454;-82
2021/08/14 11:37:49;;;;;;;4.73;3.80;;;24.50;99.90;;;;;;4909362;29;20429;-81
2021/08/14 11:40:21;;;;;;;3.00;2.33;;;24.30;99.90;;;;;;4909745;29;20492;-81
2021/08/14 11:42:57;;;;;;;4.57;2.70;;;24.10;99.90;;;;;;4907224;29;20456;-82
2021/08/14 11:45:27;;;;;;;4.87;2.47;;;24.00;99.90;;;;;;4893776;29;20448;-83
2021/08/14 11:48:01;;;;;;;3.43;2.33;;;24.20;99.90;;;;;;4909132;29;21006;-82
2021/08/14 11:50:34;;;;;;;3.70;2.70;;;24.50;99.90;;;;;;4893228;29;20436;-83
2021/08/14 11:53:03;;;;;;;3.20;2.60;;;24.90;99.90;;;;;;4891954;29;20425;-83
2021/08/14 11:55:32;;;;;;;6.57;2.87;;;25.30;99.90;;;;;;4889123;29;20496;-84
2021/08/14 11:58:00;;;;;;;5.07;2.83;;;25.70;99.90;;;;;;4889732;29;20461;-83
2021/08/14 12:00:30;;;;;;;4.70;2.20;;;25.90;99.90;;;;;;4889320;29;20467;-82
2021/08/14 12:03:08;;;;;;;5.70;4.23;;;26.00;99.90;;;;;;4906474;29;20449;-82
2021/08/14 12:05:37;;;;;;;5.43;2.80;;;26.20;99.90;;;;;;4907791;29;20410;-80
2021/08/14 12:08:06;;;;;;;5.87;2.37;;;26.20;99.90;;;;;;4890429;29;20465;-82
2021/08/14 12:10:35;;;;;;;5.30;2.20;;;26.30;99.90;;;;;;4891259;29;20466;-81
2021/08/14 12:13:05;;;;;;;3.07;1.77;;;26.50;99.90;;;;;;4907982;29;20441;-82
2021/08/14 12:15:51;;;;;;;3.00;2.17;;;26.60;99.90;;;;;;4907797;29;20474;-85
2021/08/14 12:18:35;;;;;;;3.23;2.37;;;26.60;99.90;;;;;;4891502;29;20446;-81
2021/08/14 12:21:06;;;;;;;6.20;2.27;;;26.00;99.90;;;;;;4908105;29;20501;-83
2021/08/14 12:23:37;;;;;;;4.03;2.33;;;25.50;99.90;;;;;;4892369;29;20445;-80
2021/08/14 12:26:06;;;;;;;7.30;3.33;;;25.40;99.90;;;;;;4909652;29;20438;-81
2021/08/14 12:28:36;;;;;;;6.30;2.50;;;25.60;99.90;;;;;;4895307;29;20481;-82
2021/08/14 12:31:16;;;;;;;5.10;2.27;;;25.70;99.90;;;;;;4914578;29;20450;-81
2021/08/14 12:33:51;;;;;;;3.80;2.27;;;25.80;99.90;;;;;;4905754;29;20397;-79
2021/08/14 12:36:33;;;;;;;5.57;2.40;;;25.90;99.90;;;;;;4922509;29;20418;-79
2021/08/14 12:39:19;;;;;;;2.57;2.07;;;26.00;99.90;;;;;;4905891;29;20483;-80
2021/08/14 12:41:52;;;;;;;5.40;3.43;;;26.30;99.90;;;;;;4905680;29;20449;-81
2021/08/14 12:44:43;;;;;;;5.90;2.37;;;26.40;99.90;;;;;;4906189;29;20430;-79
2021/08/14 12:47:12;;;;;;;3.70;2.50;;;26.40;99.90;;;;;;4905951;29;20443;-80
2021/08/14 12:50:07;;;;;;;5.77;2.43;;;26.40;99.90;;;;;;4904892;29;20481;-80
2021/08/14 12:52:56;;;;;;;5.73;2.97;;;26.10;99.90;;;;;;4901133;29;20454;-78
2021/08/14 12:55:27;;;;;;;6.23;3.13;;;25.90;99.90;;;;;;4901627;29;20547;-80
2021/08/14 12:57:58;;;;;;;2.90;2.70;;;25.80;99.90;;;;;;4921498;29;20402;-82
2021/08/14 13:00:32;;;;;;;4.33;2.90;;;25.90;99.90;;;;;;4919825;29;20462;-81
2021/08/14 13:03:08;;;;;;;6.40;2.80;;;26.00;99.90;;;;;;4918183;29;20445;-80
2021/08/14 13:08:40;;;;;;;5.00;2.80;;;26.50;99.90;;;;;;4920101;29;20407;-81
2021/08/14 13:11:19;;;;;;;4.93;2.53;;;26.40;99.90;;;;;;4917116;29;20429;-80